sensor_id;sensor_type;location;lat;lon;timestamp;temperature;humidity
19805;DHT22;10062;51.052;13.756;2023-07-30T00:02:03;18.30;1.00
19805;DHT22;10062;51.052;13.756;2023-07-30T00:04:35;18.30;1.00
19805;DHT22;10062;51.052;13.756;2023-07-30T00:07:07;18.30;1.00
19805;DHT22;10062;51.052;13.756;2023-07-30T00:09:39;18.40;1.00
19805;DHT22;10062;51.052;13.756;2023-07-30T00:12:10;18.60;1.00
19805;DHT22;10062;51.052;13.756;2023-07-30T00:14:42;18.40;1.00
19805;DHT22;10062;51.052;13.756;2023-07-30T00:17:16;18.40;1.00
19805;DHT22;10062;51.052;13.756;2023-07-30T00:19:47;18.20;1.00
19805;DHT22;10062;51.052;13.756;2023-07-30T00:22:19;18.20;1.00
19805;DHT22;10062;51.052;13.756;2023-07-30T00:24:51;18.20;1.00
19805;DHT22;10062;51.052;13.756;2023-07-30T00:27:22;18.10;1.00
19805;DHT22;10062;51.052;13.756;2023-07-30T00:29:54;17.90;1.00
19805;DHT22;10062;51.052;13.756;2023-07-30T00:32:28;18.00;1.00
19805;DHT22;10062;51.052;13.756;2023-07-30T00:37:31;18.00;1.00
19805;DHT22;10062;51.052;13.756;2023-07-30T00:40:04;17.80;1.00
19805;DHT22;10062;51.052;13.756;2023-07-30T00:42:36;17.60;1.00
19805;DHT22;10062;51.052;13.756;2023-07-30T00:45:09;17.70;1.00
19805;DHT22;10062;51.052;13.756;2023-07-30T00:47:43;17.70;1.00
19805;DHT22;10062;51.052;13.756;2023-07-30T00:50:15;17.70;1.00
19805;DHT22;10062;51.052;13.756;2023-07-30T00:52:47;17.80;1.00
19805;DHT22;10062;51.052;13.756;2023-07-30T00:57:52;17.60;1.00
19805;DHT22;10062;51.052;13.756;2023-07-30T01:00:24;17.20;1.00
19805;DHT22;10062;51.052;13.756;2023-07-30T01:02:59;17.40;1.00
19805;DHT22;10062;51.052;13.756;2023-07-30T01:05:31;17.50;1.00
19805;DHT22;10062;51.052;13.756;2023-07-30T01:08:03;17.50;1.00
19805;DHT22;10062;51.052;13.756;2023-07-30T01:10:35;17.40;1.00
19805;DHT22;10062;51.052;13.756;2023-07-30T01:13:09;17.20;1.00
19805;DHT22;10062;51.052;13.756;2023-07-30T01:15:42;17.10;7.20
19805;DHT22;10062;51.052;13.756;2023-07-30T01:18:15;17.00;14.50
19805;DHT22;10062;51.052;13.756;2023-07-30T01:23:21;17.20;6.80
19805;DHT22;10062;51.052;13.756;2023-07-30T01:25:59;17.30;10.60
19805;DHT22;10062;51.052;13.756;2023-07-30T01:28:36;17.30;1.00
19805;DHT22;10062;51.052;13.756;2023-07-30T01:31:09;17.40;1.00
19805;DHT22;10062;51.052;13.756;2023-07-30T01:33:47;17.40;1.00
19805;DHT22;10062;51.052;13.756;2023-07-30T01:36:20;17.40;1.00
19805;DHT22;10062;51.052;13.756;2023-07-30T01:38:54;17.40;1.00
19805;DHT22;10062;51.052;13.756;2023-07-30T01:41:26;17.40;1.00
19805;DHT22;10062;51.052;13.756;2023-07-30T01:43:59;17.50;1.00
19805;DHT22;10062;51.052;13.756;2023-07-30T01:46:30;17.40;1.00
19805;DHT22;10062;51.052;13.756;2023-07-30T01:49:02;17.20;1.00
19805;DHT22;10062;51.052;13.756;2023-07-30T01:51:34;17.30;1.00
19805;DHT22;10062;51.052;13.756;2023-07-30T01:54:07;17.30;1.00
19805;DHT22;10062;51.052;13.756;2023-07-30T01:56:39;17.20;1.00
19805;DHT22;10062;51.052;13.756;2023-07-30T01:59:11;17.20;1.00
19805;DHT22;10062;51.052;13.756;2023-07-30T02:01:43;17.30;1.00
19805;DHT22;10062;51.052;13.756;2023-07-30T02:04:15;17.20;1.00
19805;DHT22;10062;51.052;13.756;2023-07-30T02:06:48;17.30;1.00
19805;DHT22;10062;51.052;13.756;2023-07-30T02:09:21;17.70;1.00
19805;DHT22;10062;51.052;13.756;2023-07-30T02:11:53;17.40;1.00
19805;DHT22;10062;51.052;13.756;2023-07-30T02:14:25;17.40;1.00
19805;DHT22;10062;51.052;13.756;2023-07-30T02:16:57;17.70;1.00
19805;DHT22;10062;51.052;13.756;2023-07-30T02:19:28;17.40;1.00
19805;DHT22;10062;51.052;13.756;2023-07-30T02:22:01;17.50;1.00
19805;DHT22;10062;51.052;13.756;2023-07-30T02:24:34;17.50;1.00
19805;DHT22;10062;51.052;13.756;2023-07-30T02:27:06;17.40;1.00
19805;DHT22;10062;51.052;13.756;2023-07-30T02:32:11;17.40;1.00
19805;DHT22;10062;51.052;13.756;2023-07-30T02:34:42;17.40;1.00
19805;DHT22;10062;51.052;13.756;2023-07-30T02:37:14;17.40;1.00
19805;DHT22;10062;51.052;13.756;2023-07-30T02:39:47;17.30;1.00
19805;DHT22;10062;51.052;13.756;2023-07-30T02:42:19;17.30;1.00
19805;DHT22;10062;51.052;13.756;2023-07-30T02:47:23;16.80;14.80
19805;DHT22;10062;51.052;13.756;2023-07-30T02:49:55;16.40;96.50
19805;DHT22;10062;51.052;13.756;2023-07-30T02:52:26;16.30;99.90
19805;DHT22;10062;51.052;13.756;2023-07-30T02:54:59;16.40;99.90
19805;DHT22;10062;51.052;13.756;2023-07-30T02:57:31;16.40;99.90
19805;DHT22;10062;51.052;13.756;2023-07-30T03:00:04;16.40;99.90
19805;DHT22;10062;51.052;13.756;2023-07-30T03:02:36;16.40;99.90
19805;DHT22;10062;51.052;13.756;2023-07-30T03:05:08;16.50;99.90
19805;DHT22;10062;51.052;13.756;2023-07-30T03:07:40;16.60;99.90
19805;DHT22;10062;51.052;13.756;2023-07-30T03:10:13;16.70;99.90
19805;DHT22;10062;51.052;13.756;2023-07-30T03:12:44;16.60;94.80
19805;DHT22;10062;51.052;13.756;2023-07-30T03:15:16;16.70;99.90
19805;DHT22;10062;51.052;13.756;2023-07-30T03:17:48;16.50;99.90
19805;DHT22;10062;51.052;13.756;2023-07-30T03:20:20;16.50;99.90
19805;DHT22;10062;51.052;13.756;2023-07-30T03:22:52;16.60;99.90
19805;DHT22;10062;51.052;13.756;2023-07-30T03:25:25;16.60;99.90
19805;DHT22;10062;51.052;13.756;2023-07-30T03:27:56;16.70;99.90
19805;DHT22;10062;51.052;13.756;2023-07-30T03:30:28;16.90;99.90
19805;DHT22;10062;51.052;13.756;2023-07-30T03:33:01;16.60;73.50
19805;DHT22;10062;51.052;13.756;2023-07-30T03:35:32;16.70;99.90
19805;DHT22;10062;51.052;13.756;2023-07-30T03:38:04;16.70;99.90
19805;DHT22;10062;51.052;13.756;2023-07-30T03:40:37;16.70;99.50
19805;DHT22;10062;51.052;13.756;2023-07-30T03:43:09;16.70;99.90
19805;DHT22;10062;51.052;13.756;2023-07-30T03:45:41;16.60;97.10
19805;DHT22;10062;51.052;13.756;2023-07-30T03:48:13;16.60;99.90
19805;DHT22;10062;51.052;13.756;2023-07-30T03:53:17;16.60;99.90
19805;DHT22;10062;51.052;13.756;2023-07-30T03:55:50;16.50;99.90
19805;DHT22;10062;51.052;13.756;2023-07-30T03:58:22;16.50;99.90
19805;DHT22;10062;51.052;13.756;2023-07-30T04:00:54;16.60;99.90
19805;DHT22;10062;51.052;13.756;2023-07-30T04:03:25;16.70;99.90
19805;DHT22;10062;51.052;13.756;2023-07-30T04:05:57;17.20;99.90
19805;DHT22;10062;51.052;13.756;2023-07-30T04:08:30;16.70;99.90
19805;DHT22;10062;51.052;13.756;2023-07-30T04:11:04;16.80;99.90
19805;DHT22;10062;51.052;13.756;2023-07-30T04:13:37;17.00;99.90
19805;DHT22;10062;51.052;13.756;2023-07-30T04:16:12;17.00;99.90
19805;DHT22;10062;51.052;13.756;2023-07-30T04:18:44;17.00;99.90
19805;DHT22;10062;51.052;13.756;2023-07-30T04:21:16;16.90;99.90
19805;DHT22;10062;51.052;13.756;2023-07-30T04:23:47;16.90;99.90
19805;DHT22;10062;51.052;13.756;2023-07-30T04:26:21;16.90;99.90
19805;DHT22;10062;51.052;13.756;2023-07-30T04:28:52;16.80;99.90
19805;DHT22;10062;51.052;13.756;2023-07-30T04:31:25;16.90;99.90
19805;DHT22;10062;51.052;13.756;2023-07-30T04:33:57;17.10;99.90
19805;DHT22;10062;51.052;13.756;2023-07-30T04:36:28;16.80;99.90
19805;DHT22;10062;51.052;13.756;2023-07-30T04:39:01;16.80;99.90
19805;DHT22;10062;51.052;13.756;2023-07-30T04:41:39;16.60;99.90
19805;DHT22;10062;51.052;13.756;2023-07-30T04:44:10;16.50;99.90
19805;DHT22;10062;51.052;13.756;2023-07-30T04:46:42;16.40;99.90
19805;DHT22;10062;51.052;13.756;2023-07-30T04:49:14;16.40;99.90
19805;DHT22;10062;51.052;13.756;2023-07-30T04:54:20;16.60;99.90
19805;DHT22;10062;51.052;13.756;2023-07-30T04:56:53;16.70;99.90
19805;DHT22;10062;51.052;13.756;2023-07-30T04:59:25;17.30;99.90
19805;DHT22;10062;51.052;13.756;2023-07-30T05:01:56;16.90;99.90
19805;DHT22;10062;51.052;13.756;2023-07-30T05:04:28;16.80;99.90
19805;DHT22;10062;51.052;13.756;2023-07-30T05:07:00;16.80;99.90
19805;DHT22;10062;51.052;13.756;2023-07-30T05:09:32;16.80;99.90
19805;DHT22;10062;51.052;13.756;2023-07-30T05:12:05;16.70;99.90
19805;DHT22;10062;51.052;13.756;2023-07-30T05:14:37;16.90;99.90
19805;DHT22;10062;51.052;13.756;2023-07-30T05:17:09;14.00;99.90
19805;DHT22;10062;51.052;13.756;2023-07-30T05:19:41;16.90;99.90
19805;DHT22;10062;51.052;13.756;2023-07-30T05:22:12;17.00;99.90
19805;DHT22;10062;51.052;13.756;2023-07-30T05:24:44;17.00;99.90
19805;DHT22;10062;51.052;13.756;2023-07-30T05:27:17;17.10;99.90
19805;DHT22;10062;51.052;13.756;2023-07-30T05:29:49;17.20;99.90
19805;DHT22;10062;51.052;13.756;2023-07-30T05:32:21;17.30;99.90
19805;DHT22;10062;51.052;13.756;2023-07-30T05:34:53;17.60;99.90
19805;DHT22;10062;51.052;13.756;2023-07-30T05:37:24;17.40;99.90
19805;DHT22;10062;51.052;13.756;2023-07-30T05:39:56;17.40;99.90
19805;DHT22;10062;51.052;13.756;2023-07-30T05:42:29;17.50;99.90
19805;DHT22;10062;51.052;13.756;2023-07-30T05:45:01;17.60;99.30
19805;DHT22;10062;51.052;13.756;2023-07-30T05:47:33;17.70;96.10
19805;DHT22;10062;51.052;13.756;2023-07-30T05:50:06;17.90;95.00
19805;DHT22;10062;51.052;13.756;2023-07-30T05:52:38;17.80;90.00
19805;DHT22;10062;51.052;13.756;2023-07-30T05:55:10;17.90;33.30
19805;DHT22;10062;51.052;13.756;2023-07-30T05:57:43;18.00;27.10
19805;DHT22;10062;51.052;13.756;2023-07-30T06:00:15;18.30;27.70
19805;DHT22;10062;51.052;13.756;2023-07-30T06:02:47;18.30;15.00
19805;DHT22;10062;51.052;13.756;2023-07-30T06:05:18;18.50;1.00
19805;DHT22;10062;51.052;13.756;2023-07-30T06:07:50;18.50;1.00
19805;DHT22;10062;51.052;13.756;2023-07-30T06:10:22;18.60;1.00
19805;DHT22;10062;51.052;13.756;2023-07-30T06:12:55;18.70;1.00
19805;DHT22;10062;51.052;13.756;2023-07-30T06:15:27;18.70;1.00
19805;DHT22;10062;51.052;13.756;2023-07-30T06:18:00;18.70;1.00
19805;DHT22;10062;51.052;13.756;2023-07-30T06:20:32;19.40;1.00
19805;DHT22;10062;51.052;13.756;2023-07-30T06:23:04;18.80;1.00
19805;DHT22;10062;51.052;13.756;2023-07-30T06:25:35;18.80;1.00
19805;DHT22;10062;51.052;13.756;2023-07-30T06:28:08;18.90;1.00
19805;DHT22;10062;51.052;13.756;2023-07-30T06:30:40;19.00;1.00
19805;DHT22;10062;51.052;13.756;2023-07-30T06:33:12;18.80;1.00
19805;DHT22;10062;51.052;13.756;2023-07-30T06:35:44;18.70;1.00
19805;DHT22;10062;51.052;13.756;2023-07-30T06:38:15;18.70;1.00
19805;DHT22;10062;51.052;13.756;2023-07-30T06:40:47;18.80;1.00
19805;DHT22;10062;51.052;13.756;2023-07-30T06:43:20;18.90;1.00
19805;DHT22;10062;51.052;13.756;2023-07-30T06:45:53;19.10;1.00
19805;DHT22;10062;51.052;13.756;2023-07-30T06:48:24;19.10;1.00
19805;DHT22;10062;51.052;13.756;2023-07-30T06:50:56;19.20;1.00
19805;DHT22;10062;51.052;13.756;2023-07-30T06:53:28;19.10;1.00
19805;DHT22;10062;51.052;13.756;2023-07-30T06:56:00;19.10;1.00
19805;DHT22;10062;51.052;13.756;2023-07-30T06:58:33;19.20;1.00
19805;DHT22;10062;51.052;13.756;2023-07-30T07:01:05;19.40;1.00
19805;DHT22;10062;51.052;13.756;2023-07-30T07:03:36;19.60;1.00
19805;DHT22;10062;51.052;13.756;2023-07-30T07:08:40;19.80;1.00
19805;DHT22;10062;51.052;13.756;2023-07-30T07:11:12;19.80;1.00
19805;DHT22;10062;51.052;13.756;2023-07-30T07:13:45;19.80;1.00
19805;DHT22;10062;51.052;13.756;2023-07-30T07:16:17;19.70;1.00
19805;DHT22;10062;51.052;13.756;2023-07-30T07:18:49;19.80;1.00
19805;DHT22;10062;51.052;13.756;2023-07-30T07:23:53;20.20;1.00
19805;DHT22;10062;51.052;13.756;2023-07-30T07:26:26;20.70;1.00
19805;DHT22;10062;51.052;13.756;2023-07-30T07:28:59;20.80;1.00
19805;DHT22;10062;51.052;13.756;2023-07-30T07:31:31;21.00;1.00
19805;DHT22;10062;51.052;13.756;2023-07-30T07:34:03;21.10;1.00
19805;DHT22;10062;51.052;13.756;2023-07-30T07:36:36;21.40;1.00
19805;DHT22;10062;51.052;13.756;2023-07-30T07:39:08;21.60;1.00
19805;DHT22;10062;51.052;13.756;2023-07-30T07:41:40;22.00;1.00
19805;DHT22;10062;51.052;13.756;2023-07-30T07:44:13;22.40;1.00
19805;DHT22;10062;51.052;13.756;2023-07-30T07:46:45;22.70;3.70
19805;DHT22;10062;51.052;13.756;2023-07-30T07:49:16;22.80;1.00
19805;DHT22;10062;51.052;13.756;2023-07-30T07:51:48;23.00;1.00
19805;DHT22;10062;51.052;13.756;2023-07-30T07:54:20;23.10;1.00
19805;DHT22;10062;51.052;13.756;2023-07-30T07:56:52;23.10;99.90
19805;DHT22;10062;51.052;13.756;2023-07-30T07:59:26;23.10;1.00
19805;DHT22;10062;51.052;13.756;2023-07-30T08:01:58;23.20;1.00
19805;DHT22;10062;51.052;13.756;2023-07-30T08:04:30;23.40;1.00
19805;DHT22;10062;51.052;13.756;2023-07-30T08:07:02;23.60;1.00
19805;DHT22;10062;51.052;13.756;2023-07-30T08:09:34;23.80;1.00
19805;DHT22;10062;51.052;13.756;2023-07-30T08:12:07;23.90;51.60
19805;DHT22;10062;51.052;13.756;2023-07-30T08:14:40;23.90;1.00
19805;DHT22;10062;51.052;13.756;2023-07-30T08:17:12;23.80;1.00
19805;DHT22;10062;51.052;13.756;2023-07-30T08:19:43;23.80;1.00
19805;DHT22;10062;51.052;13.756;2023-07-30T08:22:15;24.00;99.90
19805;DHT22;10062;51.052;13.756;2023-07-30T08:24:47;24.10;99.90
19805;DHT22;10062;51.052;13.756;2023-07-30T08:27:19;24.30;99.90
19805;DHT22;10062;51.052;13.756;2023-07-30T08:29:52;24.40;1.00
19805;DHT22;10062;51.052;13.756;2023-07-30T08:32:23;24.60;1.00
19805;DHT22;10062;51.052;13.756;2023-07-30T08:34:55;24.70;1.00
19805;DHT22;10062;51.052;13.756;2023-07-30T08:37:27;24.80;1.00
19805;DHT22;10062;51.052;13.756;2023-07-30T08:39:59;24.80;1.00
19805;DHT22;10062;51.052;13.756;2023-07-30T08:42:31;25.10;1.00
19805;DHT22;10062;51.052;13.756;2023-07-30T08:45:06;25.10;99.70
19805;DHT22;10062;51.052;13.756;2023-07-30T08:47:39;25.00;1.00
19805;DHT22;10062;51.052;13.756;2023-07-30T08:50:11;25.10;99.90
19805;DHT22;10062;51.052;13.756;2023-07-30T08:52:44;25.20;1.00
19805;DHT22;10062;51.052;13.756;2023-07-30T08:55:16;25.30;1.00
19805;DHT22;10062;51.052;13.756;2023-07-30T08:57:49;25.60;1.00
19805;DHT22;10062;51.052;13.756;2023-07-30T09:00:25;25.70;1.00
19805;DHT22;10062;51.052;13.756;2023-07-30T09:02:59;25.90;99.90
19805;DHT22;10062;51.052;13.756;2023-07-30T09:05:32;25.90;99.90
19805;DHT22;10062;51.052;13.756;2023-07-30T09:08:04;26.30;1.00
19805;DHT22;10062;51.052;13.756;2023-07-30T09:10:37;26.10;1.00
19805;DHT22;10062;51.052;13.756;2023-07-30T09:13:09;26.20;1.00
19805;DHT22;10062;51.052;13.756;2023-07-30T09:15:42;26.30;1.00
19805;DHT22;10062;51.052;13.756;2023-07-30T09:18:19;26.40;99.90
19805;DHT22;10062;51.052;13.756;2023-07-30T09:20:51;26.70;1.00
19805;DHT22;10062;51.052;13.756;2023-07-30T09:23:23;26.80;1.00
19805;DHT22;10062;51.052;13.756;2023-07-30T09:25:57;27.00;99.90
19805;DHT22;10062;51.052;13.756;2023-07-30T09:28:31;27.40;22.80
19805;DHT22;10062;51.052;13.756;2023-07-30T09:31:05;27.70;99.90
19805;DHT22;10062;51.052;13.756;2023-07-30T09:33:40;27.60;1.00
19805;DHT22;10062;51.052;13.756;2023-07-30T09:36:12;27.40;1.00
19805;DHT22;10062;51.052;13.756;2023-07-30T09:38:44;26.90;1.00
19805;DHT22;10062;51.052;13.756;2023-07-30T09:41:16;26.60;1.00
19805;DHT22;10062;51.052;13.756;2023-07-30T09:43:48;26.40;47.40
19805;DHT22;10062;51.052;13.756;2023-07-30T09:46:21;26.20;1.00
19805;DHT22;10062;51.052;13.756;2023-07-30T09:48:53;25.90;99.90
19805;DHT22;10062;51.052;13.756;2023-07-30T09:51:25;26.00;1.00
19805;DHT22;10062;51.052;13.756;2023-07-30T09:53:57;25.90;99.90
19805;DHT22;10062;51.052;13.756;2023-07-30T09:56:29;25.80;1.00
19805;DHT22;10062;51.052;13.756;2023-07-30T09:59:00;25.90;99.90
19805;DHT22;10062;51.052;13.756;2023-07-30T10:01:38;26.00;99.90
19805;DHT22;10062;51.052;13.756;2023-07-30T10:04:11;26.20;1.00
19805;DHT22;10062;51.052;13.756;2023-07-30T10:06:45;26.60;99.90
19805;DHT22;10062;51.052;13.756;2023-07-30T10:09:19;27.10;99.90
19805;DHT22;10062;51.052;13.756;2023-07-30T10:11:54;28.00;1.00
19805;DHT22;10062;51.052;13.756;2023-07-30T10:14:26;28.30;1.00
19805;DHT22;10062;51.052;13.756;2023-07-30T10:17:00;27.70;1.00
19805;DHT22;10062;51.052;13.756;2023-07-30T10:19:32;27.20;1.00
19805;DHT22;10062;51.052;13.756;2023-07-30T10:22:20;26.90;1.00
19805;DHT22;10062;51.052;13.756;2023-07-30T10:24:57;26.60;1.00
19805;DHT22;10062;51.052;13.756;2023-07-30T10:27:37;27.20;1.00
19805;DHT22;10062;51.052;13.756;2023-07-30T10:30:10;27.40;1.00
19805;DHT22;10062;51.052;13.756;2023-07-30T10:33:01;27.20;1.00
19805;DHT22;10062;51.052;13.756;2023-07-30T10:35:41;26.90;1.00
19805;DHT22;10062;51.052;13.756;2023-07-30T10:38:17;26.70;1.00
19805;DHT22;10062;51.052;13.756;2023-07-30T10:41:00;26.40;1.00
19805;DHT22;10062;51.052;13.756;2023-07-30T10:43:35;26.00;1.00
19805;DHT22;10062;51.052;13.756;2023-07-30T10:46:08;25.90;1.00
19805;DHT22;10062;51.052;13.756;2023-07-30T10:48:43;25.90;99.90
19805;DHT22;10062;51.052;13.756;2023-07-30T10:51:18;25.80;99.90
19805;DHT22;10062;51.052;13.756;2023-07-30T10:53:51;25.90;99.90
19805;DHT22;10062;51.052;13.756;2023-07-30T10:56:23;26.30;49.80
19805;DHT22;10062;51.052;13.756;2023-07-30T10:58:55;27.10;1.00
19805;DHT22;10062;51.052;13.756;2023-07-30T11:01:27;27.40;1.00
19805;DHT22;10062;51.052;13.756;2023-07-30T11:04:00;28.60;1.00
19805;DHT22;10062;51.052;13.756;2023-07-30T11:06:32;30.80;99.90
19805;DHT22;10062;51.052;13.756;2023-07-30T11:09:04;33.70;1.00
19805;DHT22;10062;51.052;13.756;2023-07-30T11:11:40;35.00;1.00
19805;DHT22;10062;51.052;13.756;2023-07-30T11:14:15;37.00;1.00
19805;DHT22;10062;51.052;13.756;2023-07-30T11:16:50;39.40;1.00
19805;DHT22;10062;51.052;13.756;2023-07-30T11:19:25;40.20;1.00
19805;DHT22;10062;51.052;13.756;2023-07-30T11:21:57;40.30;1.00
19805;DHT22;10062;51.052;13.756;2023-07-30T11:24:35;38.70;1.00
19805;DHT22;10062;51.052;13.756;2023-07-30T11:27:10;38.20;1.00
19805;DHT22;10062;51.052;13.756;2023-07-30T11:29:53;36.20;1.00
19805;DHT22;10062;51.052;13.756;2023-07-30T11:32:29;34.80;1.00
19805;DHT22;10062;51.052;13.756;2023-07-30T11:35:05;33.80;1.00
19805;DHT22;10062;51.052;13.756;2023-07-30T11:37:39;33.10;1.00
19805;DHT22;10062;51.052;13.756;2023-07-30T11:40:13;32.20;1.00
19805;DHT22;10062;51.052;13.756;2023-07-30T11:42:45;31.80;1.00
19805;DHT22;10062;51.052;13.756;2023-07-30T11:45:17;31.60;1.00
19805;DHT22;10062;51.052;13.756;2023-07-30T11:47:50;31.80;1.00
19805;DHT22;10062;51.052;13.756;2023-07-30T11:50:23;31.50;1.00
19805;DHT22;10062;51.052;13.756;2023-07-30T11:52:56;31.80;1.00
19805;DHT22;10062;51.052;13.756;2023-07-30T11:55:37;31.80;1.00
19805;DHT22;10062;51.052;13.756;2023-07-30T11:58:10;31.80;1.00
19805;DHT22;10062;51.052;13.756;2023-07-30T12:00:43;31.60;1.00
19805;DHT22;10062;51.052;13.756;2023-07-30T12:03:15;31.60;1.00
19805;DHT22;10062;51.052;13.756;2023-07-30T12:05:49;31.50;1.00
19805;DHT22;10062;51.052;13.756;2023-07-30T12:08:25;31.40;1.00
19805;DHT22;10062;51.052;13.756;2023-07-30T12:11:02;31.70;1.00
19805;DHT22;10062;51.052;13.756;2023-07-30T12:13:42;31.60;1.00
19805;DHT22;10062;51.052;13.756;2023-07-30T12:16:16;31.50;1.00
19805;DHT22;10062;51.052;13.756;2023-07-30T12:18:48;31.40;1.00
19805;DHT22;10062;51.052;13.756;2023-07-30T12:21:21;31.50;1.00
19805;DHT22;10062;51.052;13.756;2023-07-30T12:23:52;31.60;1.00
19805;DHT22;10062;51.052;13.756;2023-07-30T12:26:24;31.70;1.00
19805;DHT22;10062;51.052;13.756;2023-07-30T12:28:56;31.90;1.00
19805;DHT22;10062;51.052;13.756;2023-07-30T12:31:28;31.80;1.00
19805;DHT22;10062;51.052;13.756;2023-07-30T12:33:59;31.90;1.00
19805;DHT22;10062;51.052;13.756;2023-07-30T12:36:32;31.90;1.00
19805;DHT22;10062;51.052;13.756;2023-07-30T12:39:04;29.70;1.00
19805;DHT22;10062;51.052;13.756;2023-07-30T12:41:36;32.10;1.00
19805;DHT22;10062;51.052;13.756;2023-07-30T12:44:08;32.00;1.00
19805;DHT22;10062;51.052;13.756;2023-07-30T12:46:40;31.60;1.00
19805;DHT22;10062;51.052;13.756;2023-07-30T12:49:12;31.30;1.00
19805;DHT22;10062;51.052;13.756;2023-07-30T12:51:45;31.30;1.00
19805;DHT22;10062;51.052;13.756;2023-07-30T12:54:17;31.40;1.00
19805;DHT22;10062;51.052;13.756;2023-07-30T12:56:48;31.60;1.00
19805;DHT22;10062;51.052;13.756;2023-07-30T12:59:20;31.60;1.00
19805;DHT22;10062;51.052;13.756;2023-07-30T13:01:52;31.50;1.00
19805;DHT22;10062;51.052;13.756;2023-07-30T13:04:24;31.00;1.00
19805;DHT22;10062;51.052;13.756;2023-07-30T13:06:58;30.60;1.00
19805;DHT22;10062;51.052;13.756;2023-07-30T13:09:31;30.50;1.00
19805;DHT22;10062;51.052;13.756;2023-07-30T13:12:03;30.70;1.00
19805;DHT22;10062;51.052;13.756;2023-07-30T13:14:35;30.50;1.00
19805;DHT22;10062;51.052;13.756;2023-07-30T13:17:06;30.50;1.00
19805;DHT22;10062;51.052;13.756;2023-07-30T13:19:38;30.10;1.00
19805;DHT22;10062;51.052;13.756;2023-07-30T13:22:11;31.10;1.00
19805;DHT22;10062;51.052;13.756;2023-07-30T13:24:43;29.30;1.00
19805;DHT22;10062;51.052;13.756;2023-07-30T13:27:16;29.50;1.00
19805;DHT22;10062;51.052;13.756;2023-07-30T13:29:48;29.60;1.00
19805;DHT22;10062;51.052;13.756;2023-07-30T13:32:20;29.70;1.00
19805;DHT22;10062;51.052;13.756;2023-07-30T13:34:52;29.60;1.00
19805;DHT22;10062;51.052;13.756;2023-07-30T13:37:25;29.70;1.00
19805;DHT22;10062;51.052;13.756;2023-07-30T13:39:56;29.70;1.00
19805;DHT22;10062;51.052;13.756;2023-07-30T13:42:28;29.40;1.00
19805;DHT22;10062;51.052;13.756;2023-07-30T13:45:00;29.40;1.00
19805;DHT22;10062;51.052;13.756;2023-07-30T13:47:32;29.20;1.00
19805;DHT22;10062;51.052;13.756;2023-07-30T13:50:04;29.30;1.00
19805;DHT22;10062;51.052;13.756;2023-07-30T13:52:38;29.30;1.00
19805;DHT22;10062;51.052;13.756;2023-07-30T13:55:10;29.20;1.00
19805;DHT22;10062;51.052;13.756;2023-07-30T13:57:42;29.20;1.00
19805;DHT22;10062;51.052;13.756;2023-07-30T14:00:14;29.20;1.00
19805;DHT22;10062;51.052;13.756;2023-07-30T14:02:45;29.20;1.00
19805;DHT22;10062;51.052;13.756;2023-07-30T14:05:18;29.20;1.00
19805;DHT22;10062;51.052;13.756;2023-07-30T14:07:51;29.20;1.00
19805;DHT22;10062;51.052;13.756;2023-07-30T14:10:24;29.00;1.00
19805;DHT22;10062;51.052;13.756;2023-07-30T14:12:57;28.80;1.00
19805;DHT22;10062;51.052;13.756;2023-07-30T14:15:28;30.30;1.00
19805;DHT22;10062;51.052;13.756;2023-07-30T14:18:00;28.30;1.00
19805;DHT22;10062;51.052;13.756;2023-07-30T14:20:32;28.40;1.00
19805;DHT22;10062;51.052;13.756;2023-07-30T14:23:07;28.50;1.00
19805;DHT22;10062;51.052;13.756;2023-07-30T14:25:38;28.80;1.00
19805;DHT22;10062;51.052;13.756;2023-07-30T14:28:10;28.90;1.00
19805;DHT22;10062;51.052;13.756;2023-07-30T14:30:43;28.90;1.00
19805;DHT22;10062;51.052;13.756;2023-07-30T14:33:15;28.50;1.00
19805;DHT22;10062;51.052;13.756;2023-07-30T14:35:47;28.30;1.00
19805;DHT22;10062;51.052;13.756;2023-07-30T14:38:20;28.00;1.00
19805;DHT22;10062;51.052;13.756;2023-07-30T14:40:52;27.90;1.00
19805;DHT22;10062;51.052;13.756;2023-07-30T14:43:23;27.60;1.00
19805;DHT22;10062;51.052;13.756;2023-07-30T14:45:55;27.50;1.00
19805;DHT22;10062;51.052;13.756;2023-07-30T14:48:27;27.20;1.00
19805;DHT22;10062;51.052;13.756;2023-07-30T14:50:59;26.90;1.00
19805;DHT22;10062;51.052;13.756;2023-07-30T14:53:32;26.80;1.00
19805;DHT22;10062;51.052;13.756;2023-07-30T14:56:04;26.60;99.90
19805;DHT22;10062;51.052;13.756;2023-07-30T14:58:35;26.40;1.00
19805;DHT22;10062;51.052;13.756;2023-07-30T15:01:07;26.40;1.00
19805;DHT22;10062;51.052;13.756;2023-07-30T15:03:39;26.30;99.90
19805;DHT22;10062;51.052;13.756;2023-07-30T15:06:11;26.10;99.90
19805;DHT22;10062;51.052;13.756;2023-07-30T15:08:44;25.90;99.90
19805;DHT22;10062;51.052;13.756;2023-07-30T15:11:16;25.70;99.90
19805;DHT22;10062;51.052;13.756;2023-07-30T15:13:48;25.40;1.00
19805;DHT22;10062;51.052;13.756;2023-07-30T15:16:20;25.20;1.00
19805;DHT22;10062;51.052;13.756;2023-07-30T15:18:52;25.10;1.00
19805;DHT22;10062;51.052;13.756;2023-07-30T15:21:24;24.70;99.90
19805;DHT22;10062;51.052;13.756;2023-07-30T15:23:57;24.00;1.00
19805;DHT22;10062;51.052;13.756;2023-07-30T15:26:29;23.50;1.00
19805;DHT22;10062;51.052;13.756;2023-07-30T15:29:01;22.90;1.00
19805;DHT22;10062;51.052;13.756;2023-07-30T15:31:33;22.90;1.00
19805;DHT22;10062;51.052;13.756;2023-07-30T15:34:05;22.90;1.00
19805;DHT22;10062;51.052;13.756;2023-07-30T15:36:37;22.70;1.00
19805;DHT22;10062;51.052;13.756;2023-07-30T15:39:11;22.70;1.00
19805;DHT22;10062;51.052;13.756;2023-07-30T15:41:43;22.90;1.00
19805;DHT22;10062;51.052;13.756;2023-07-30T15:44:14;22.80;1.00
19805;DHT22;10062;51.052;13.756;2023-07-30T15:46:47;22.90;1.00
19805;DHT22;10062;51.052;13.756;2023-07-30T15:49:19;22.90;1.00
19805;DHT22;10062;51.052;13.756;2023-07-30T15:51:51;23.00;99.90
19805;DHT22;10062;51.052;13.756;2023-07-30T15:54:34;22.80;1.00
19805;DHT22;10062;51.052;13.756;2023-07-30T15:57:06;23.00;1.00
19805;DHT22;10062;51.052;13.756;2023-07-30T15:59:44;22.90;1.00
19805;DHT22;10062;51.052;13.756;2023-07-30T16:02:16;22.80;1.00
19805;DHT22;10062;51.052;13.756;2023-07-30T16:04:47;22.90;1.00
19805;DHT22;10062;51.052;13.756;2023-07-30T16:07:19;22.90;1.00
19805;DHT22;10062;51.052;13.756;2023-07-30T16:09:52;23.00;1.00
19805;DHT22;10062;51.052;13.756;2023-07-30T16:12:24;23.00;1.00
19805;DHT22;10062;51.052;13.756;2023-07-30T16:14:56;23.00;1.00
19805;DHT22;10062;51.052;13.756;2023-07-30T16:17:28;23.00;99.90
19805;DHT22;10062;51.052;13.756;2023-07-30T16:19:59;23.10;1.00
19805;DHT22;10062;51.052;13.756;2023-07-30T16:22:31;22.90;1.00
19805;DHT22;10062;51.052;13.756;2023-07-30T16:25:05;22.80;99.90